sensor_id;sensor_type;location;lat;lon;timestamp;pressure;altitude;pressure_sealevel;temperature;humidity
7660;BME280;3872;47.902;8.162;2023-03-21T00:00:34;92041.19;;;6.47;100.00
7660;BME280;3872;47.902;8.162;2023-03-21T00:03:01;92034.16;;;6.42;100.00
7660;BME280;3872;47.902;8.162;2023-03-21T00:05:29;92036.78;;;5.86;100.00
7660;BME280;3872;47.902;8.162;2023-03-21T00:07:56;92035.25;;;6.11;100.00
7660;BME280;3872;47.902;8.162;2023-03-21T00:10:22;92048.78;;;6.33;100.00
7660;BME280;3872;47.902;8.162;2023-03-21T00:12:49;92050.91;;;6.16;100.00
7660;BME280;3872;47.902;8.162;2023-03-21T00:15:20;92045.38;;;5.67;100.00
7660;BME280;3872;47.902;8.162;2023-03-21T00:17:46;92038.63;;;6.06;100.00
7660;BME280;3872;47.902;8.162;2023-03-21T00:20:15;92037.31;;;6.09;100.00
7660;BME280;3872;47.902;8.162;2023-03-21T00:22:43;92032.59;;;5.80;100.00
7660;BME280;3872;47.902;8.162;2023-03-21T00:25:09;92038.97;;;4.50;100.00
7660;BME280;3872;47.902;8.162;2023-03-21T00:27:37;92036.41;;;5.17;100.00
7660;BME280;3872;47.902;8.162;2023-03-21T00:30:04;92029.19;;;5.85;100.00
7660;BME280;3872;47.902;8.162;2023-03-21T00:32:31;92032.81;;;5.69;100.00
7660;BME280;3872;47.902;8.162;2023-03-21T00:34:57;92025.81;;;5.74;100.00
7660;BME280;3872;47.902;8.162;2023-03-21T00:37:24;92032.53;;;5.55;100.00
7660;BME280;3872;47.902;8.162;2023-03-21T00:39:53;92027.88;;;5.77;100.00
7660;BME280;3872;47.902;8.162;2023-03-21T00:42:20;92031.81;;;5.80;100.00
7660;BME280;3872;47.902;8.162;2023-03-21T00:44:46;92032.03;;;5.63;100.00
7660;BME280;3872;47.902;8.162;2023-03-21T00:47:13;92031.72;;;5.34;100.00
7660;BME280;3872;47.902;8.162;2023-03-21T00:49:40;92027.47;;;5.03;100.00
7660;BME280;3872;47.902;8.162;2023-03-21T00:52:08;92024.09;;;5.02;100.00
7660;BME280;3872;47.902;8.162;2023-03-21T00:54:36;92032.72;;;5.13;100.00
7660;BME280;3872;47.902;8.162;2023-03-21T00:57:04;92027.03;;;5.41;100.00
7660;BME280;3872;47.902;8.162;2023-03-21T00:59:31;92029.66;;;5.41;100.00
7660;BME280;3872;47.902;8.162;2023-03-21T01:01:58;92031.44;;;5.21;100.00
7660;BME280;3872;47.902;8.162;2023-03-21T01:04:25;92024.38;;;5.21;100.00
7660;BME280;3872;47.902;8.162;2023-03-21T01:06:53;92020.75;;;5.22;100.00
7660;BME280;3872;47.902;8.162;2023-03-21T01:09:22;92021.28;;;5.24;100.00
7660;BME280;3872;47.902;8.162;2023-03-21T01:11:50;92026.69;;;5.07;100.00
7660;BME280;3872;47.902;8.162;2023-03-21T01:14:19;92021.84;;;4.69;100.00
7660;BME280;3872;47.902;8.162;2023-03-21T01:16:47;92028.28;;;4.46;100.00
7660;BME280;3872;47.902;8.162;2023-03-21T01:19:16;92018.34;;;4.43;100.00
7660;BME280;3872;47.902;8.162;2023-03-21T01:21:43;92016.56;;;4.07;100.00
7660;BME280;3872;47.902;8.162;2023-03-21T01:24:10;92013.84;;;4.33;100.00
7660;BME280;3872;47.902;8.162;2023-03-21T01:26:36;92016.03;;;4.05;100.00
7660;BME280;3872;47.902;8.162;2023-03-21T01:29:03;92013.09;;;4.38;100.00
7660;BME280;3872;47.902;8.162;2023-03-21T01:31:32;92007.72;;;4.55;100.00
7660;BME280;3872;47.902;8.162;2023-03-21T01:33:58;92014.06;;;4.27;100.00
7660;BME280;3872;47.902;8.162;2023-03-21T01:36:25;92012.69;;;3.77;100.00
7660;BME280;3872;47.902;8.162;2023-03-21T01:38:58;92011.75;;;3.88;100.00
7660;BME280;3872;47.902;8.162;2023-03-21T01:41:27;92008.00;;;4.11;100.00
7660;BME280;3872;47.902;8.162;2023-03-21T01:43:54;92009.41;;;4.29;100.00
7660;BME280;3872;47.902;8.162;2023-03-21T01:46:33;92011.56;;;4.00;100.00
7660;BME280;3872;47.902;8.162;2023-03-21T01:49:15;92001.25;;;4.15;100.00
7660;BME280;3872;47.902;8.162;2023-03-21T01:51:51;91997.25;;;3.98;100.00
7660;BME280;3872;47.902;8.162;2023-03-21T01:54:22;91998.19;;;4.28;100.00
7660;BME280;3872;47.902;8.162;2023-03-21T01:56:50;91998.75;;;4.30;100.00
7660;BME280;3872;47.902;8.162;2023-03-21T01:59:20;92002.75;;;4.06;100.00
7660;BME280;3872;47.902;8.162;2023-03-21T02:02:16;91997.53;;;4.06;100.00
7660;BME280;3872;47.902;8.162;2023-03-21T02:05:10;92004.66;;;3.84;100.00
7660;BME280;3872;47.902;8.162;2023-03-21T02:07:38;92007.22;;;3.74;100.00
7660;BME280;3872;47.902;8.162;2023-03-21T02:10:09;92000.88;;;3.97;100.00
7660;BME280;3872;47.902;8.162;2023-03-21T02:12:41;91997.16;;;4.29;100.00
7660;BME280;3872;47.902;8.162;2023-03-21T02:15:09;92000.09;;;4.43;100.00
7660;BME280;3872;47.902;8.162;2023-03-21T02:18:09;92000.16;;;3.69;100.00
7660;BME280;3872;47.902;8.162;2023-03-21T02:21:14;91994.31;;;3.25;100.00
7660;BME280;3872;47.902;8.162;2023-03-21T02:24:26;91994.50;;;3.45;100.00
7660;BME280;3872;47.902;8.162;2023-03-21T02:27:07;91984.53;;;4.06;100.00
7660;BME280;3872;47.902;8.162;2023-03-21T02:29:55;91986.53;;;3.94;100.00
7660;BME280;3872;47.902;8.162;2023-03-21T02:32:37;91984.34;;;3.76;100.00
7660;BME280;3872;47.902;8.162;2023-03-21T02:35:34;91985.06;;;3.71;100.00
7660;BME280;3872;47.902;8.162;2023-03-21T02:38:17;91977.41;;;3.54;100.00
7660;BME280;3872;47.902;8.162;2023-03-21T02:40:51;91981.47;;;3.45;100.00
7660;BME280;3872;47.902;8.162;2023-03-21T02:43:24;91983.22;;;3.67;100.00
7660;BME280;3872;47.902;8.162;2023-03-21T02:45:56;91982.94;;;4.00;100.00
7660;BME280;3872;47.902;8.162;2023-03-21T02:48:31;91975.56;;;3.92;100.00
7660;BME280;3872;47.902;8.162;2023-03-21T02:51:01;91982.25;;;3.41;100.00
7660;BME280;3872;47.902;8.162;2023-03-21T02:53:35;91989.97;;;2.82;100.00
7660;BME280;3872;47.902;8.162;2023-03-21T02:56:06;91971.44;;;3.00;100.00
7660;BME280;3872;47.902;8.162;2023-03-21T02:58:38;91977.88;;;3.20;100.00
7660;BME280;3872;47.902;8.162;2023-03-21T03:01:06;91976.69;;;3.64;100.00
7660;BME280;3872;47.902;8.162;2023-03-21T03:03:41;91970.09;;;3.88;100.00
7660;BME280;3872;47.902;8.162;2023-03-21T03:06:15;91972.09;;;3.76;100.00
7660;BME280;3872;47.902;8.162;2023-03-21T03:08:55;91969.06;;;3.89;100.00
7660;BME280;3872;47.902;8.162;2023-03-21T03:11:27;91975.56;;;3.92;100.00
7660;BME280;3872;47.902;8.162;2023-03-21T03:14:10;91978.72;;;3.94;100.00
7660;BME280;3872;47.902;8.162;2023-03-21T03:16:48;91968.75;;;3.81;100.00
7660;BME280;3872;47.902;8.162;2023-03-21T03:19:24;91967.78;;;3.55;100.00
7660;BME280;3872;47.902;8.162;2023-03-21T03:21:57;91961.84;;;3.01;100.00
7660;BME280;3872;47.902;8.162;2023-03-21T03:24:30;91959.94;;;2.91;100.00
7660;BME280;3872;47.902;8.162;2023-03-21T03:27:01;91959.13;;;3.18;100.00
7660;BME280;3872;47.902;8.162;2023-03-21T03:29:36;91966.03;;;3.07;100.00
7660;BME280;3872;47.902;8.162;2023-03-21T03:32:07;91957.13;;;3.25;100.00
7660;BME280;3872;47.902;8.162;2023-03-21T03:34:39;91959.34;;;3.75;100.00
7660;BME280;3872;47.902;8.162;2023-03-21T03:37:10;91960.91;;;3.76;100.00
7660;BME280;3872;47.902;8.162;2023-03-21T03:39:44;91964.59;;;3.48;100.00
7660;BME280;3872;47.902;8.162;2023-03-21T03:42:14;91972.06;;;3.39;100.00
7660;BME280;3872;47.902;8.162;2023-03-21T03:44:45;91971.66;;;3.52;100.00
7660;BME280;3872;47.902;8.162;2023-03-21T03:47:17;91965.66;;;3.52;100.00
7660;BME280;3872;47.902;8.162;2023-03-21T03:49:49;91963.63;;;3.54;100.00
7660;BME280;3872;47.902;8.162;2023-03-21T03:52:21;91963.22;;;3.08;100.00
7660;BME280;3872;47.902;8.162;2023-03-21T03:54:58;91969.66;;;2.79;100.00
7660;BME280;3872;47.902;8.162;2023-03-21T03:57:29;91966.78;;;3.02;100.00
7660;BME280;3872;47.902;8.162;2023-03-21T03:59:55;91952.53;;;3.37;100.00
7660;BME280;3872;47.902;8.162;2023-03-21T04:02:49;91956.81;;;3.21;100.00
7660;BME280;3872;47.902;8.162;2023-03-21T04:05:20;91959.31;;;3.38;100.00
7660;BME280;3872;47.902;8.162;2023-03-21T04:07:47;91959.13;;;3.18;100.00
7660;BME280;3872;47.902;8.162;2023-03-21T04:10:17;91962.63;;;3.01;100.00
7660;BME280;3872;47.902;8.162;2023-03-21T04:12:43;91958.94;;;3.24;100.00
7660;BME280;3872;47.902;8.162;2023-03-21T04:15:33;91963.81;;;2.67;100.00
7660;BME280;3872;47.902;8.162;2023-03-21T04:18:07;91958.78;;;2.55;100.00
7660;BME280;3872;47.902;8.162;2023-03-21T04:20:34;91957.88;;;2.71;100.00
7660;BME280;3872;47.902;8.162;2023-03-21T04:23:00;91947.69;;;2.92;100.00
7660;BME280;3872;47.902;8.162;2023-03-21T04:25:28;91947.16;;;3.17;100.00
7660;BME280;3872;47.902;8.162;2023-03-21T04:27:57;91944.25;;;3.13;100.00
7660;BME280;3872;47.902;8.162;2023-03-21T04:30:38;91942.94;;;3.10;100.00
7660;BME280;3872;47.902;8.162;2023-03-21T04:33:09;91944.59;;;2.90;100.00
7660;BME280;3872;47.902;8.162;2023-03-21T04:35:37;91951.47;;;3.06;100.00
7660;BME280;3872;47.902;8.162;2023-03-21T04:38:06;91950.09;;;2.71;100.00
7660;BME280;3872;47.902;8.162;2023-03-21T04:40:34;91944.06;;;2.66;100.00
7660;BME280;3872;47.902;8.162;2023-03-21T04:43:01;91940.16;;;2.90;100.00
7660;BME280;3872;47.902;8.162;2023-03-21T04:45:28;91936.59;;;2.96;100.00
7660;BME280;3872;47.902;8.162;2023-03-21T04:47:55;91940.91;;;2.64;100.00
7660;BME280;3872;47.902;8.162;2023-03-21T04:50:22;91934.66;;;2.87;100.00
7660;BME280;3872;47.902;8.162;2023-03-21T04:52:49;91939.31;;;2.85;100.00
7660;BME280;3872;47.902;8.162;2023-03-21T04:55:15;91947.19;;;2.90;100.00
7660;BME280;3872;47.902;8.162;2023-03-21T04:57:47;91944.59;;;2.90;100.00
7660;BME280;3872;47.902;8.162;2023-03-21T05:00:14;91936.06;;;2.99;100.00
7660;BME280;3872;47.902;8.162;2023-03-21T05:02:41;91940.00;;;2.48;100.00
7660;BME280;3872;47.902;8.162;2023-03-21T05:05:08;91940.66;;;2.17;100.00
7660;BME280;3872;47.902;8.162;2023-03-21T05:07:37;91938.16;;;1.83;100.00
7660;BME280;3872;47.902;8.162;2023-03-21T05:10:05;91938.59;;;1.97;100.00
7660;BME280;3872;47.902;8.162;2023-03-21T05:12:32;91937.06;;;2.66;100.00
7660;BME280;3872;47.902;8.162;2023-03-21T05:15:00;91937.31;;;2.92;100.00
7660;BME280;3872;47.902;8.162;2023-03-21T05:17:26;91940.69;;;2.92;100.00
7660;BME280;3872;47.902;8.162;2023-03-21T05:19:55;91936.38;;;3.03;100.00
7660;BME280;3872;47.902;8.162;2023-03-21T05:22:23;91932.56;;;3.10;100.00
7660;BME280;3872;47.902;8.162;2023-03-21T05:24:52;91938.69;;;3.26;100.00
7660;BME280;3872;47.902;8.162;2023-03-21T05:27:32;91939.31;;;3.11;100.00
7660;BME280;3872;47.902;8.162;2023-03-21T05:30:11;91937.06;;;2.93;100.00
7660;BME280;3872;47.902;8.162;2023-03-21T05:32:39;91937.31;;;3.19;100.00
7660;BME280;3872;47.902;8.162;2023-03-21T05:35:08;91944.50;;;2.85;100.00
7660;BME280;3872;47.902;8.162;2023-03-21T05:37:35;91941.13;;;3.11;100.00
7660;BME280;3872;47.902;8.162;2023-03-21T05:40:03;91948.44;;;3.14;100.00
7660;BME280;3872;47.902;8.162;2023-03-21T05:42:31;91955.66;;;3.07;100.00
7660;BME280;3872;47.902;8.162;2023-03-21T05:44:59;91955.06;;;3.00;100.00
7660;BME280;3872;47.902;8.162;2023-03-21T05:47:30;91955.97;;;2.84;100.00
7660;BME280;3872;47.902;8.162;2023-03-21T05:49:58;91950.50;;;3.12;100.00
7660;BME280;3872;47.902;8.162;2023-03-21T05:52:25;91945.56;;;3.10;100.00
7660;BME280;3872;47.902;8.162;2023-03-21T05:54:54;91942.19;;;3.15;100.00
7660;BME280;3872;47.902;8.162;2023-03-21T05:57:22;91957.09;;;3.20;100.00
7660;BME280;3872;47.902;8.162;2023-03-21T06:00:03;91951.81;;;2.88;100.00
7660;BME280;3872;47.902;8.162;2023-03-21T06:02:42;91952.06;;;2.86;100.00
7660;BME280;3872;47.902;8.162;2023-03-21T06:05:27;91955.06;;;3.27;100.00
7660;BME280;3872;47.902;8.162;2023-03-21T06:07:53;91948.75;;;3.18;100.00
7660;BME280;3872;47.902;8.162;2023-03-21T06:10:20;91947.91;;;3.12;100.00
7660;BME280;3872;47.902;8.162;2023-03-21T06:12:48;91946.47;;;3.26;100.00
7660;BME280;3872;47.902;8.162;2023-03-21T06:15:31;91954.22;;;3.21;100.00
7660;BME280;3872;47.902;8.162;2023-03-21T06:18:12;91949.34;;;3.30;100.00
7660;BME280;3872;47.902;8.162;2023-03-21T06:20:49;91955.25;;;3.20;100.00
7660;BME280;3872;47.902;8.162;2023-03-21T06:23:15;91941.84;;;3.33;100.00
7660;BME280;3872;47.902;8.162;2023-03-21T06:25:42;91942.88;;;3.32;100.00
7660;BME280;3872;47.902;8.162;2023-03-21T06:28:09;91945.91;;;3.56;100.00
7660;BME280;3872;47.902;8.162;2023-03-21T06:30:38;91943.03;;;3.52;100.00
7660;BME280;3872;47.902;8.162;2023-03-21T06:33:15;91943.25;;;3.46;100.00
7660;BME280;3872;47.902;8.162;2023-03-21T06:35:43;91932.97;;;3.29;100.00
7660;BME280;3872;47.902;8.162;2023-03-21T06:38:10;91938.97;;;3.35;100.00
7660;BME280;3872;47.902;8.162;2023-03-21T06:40:37;91937.22;;;3.40;100.00
7660;BME280;3872;47.902;8.162;2023-03-21T06:43:04;91934.59;;;3.72;100.00
7660;BME280;3872;47.902;8.162;2023-03-21T06:45:31;91940.69;;;3.93;100.00
7660;BME280;3872;47.902;8.162;2023-03-21T06:47:58;91946.69;;;3.57;100.00
7660;BME280;3872;47.902;8.162;2023-03-21T06:50:50;91931.03;;;3.83;100.00
7660;BME280;3872;47.902;8.162;2023-03-21T06:53:20;91931.88;;;3.94;100.00
7660;BME280;3872;47.902;8.162;2023-03-21T06:56:10;91939.75;;;3.62;100.00
7660;BME280;3872;47.902;8.162;2023-03-21T06:58:38;91937.69;;;4.11;100.00
7660;BME280;3872;47.902;8.162;2023-03-21T07:01:10;91932.72;;;4.67;100.00
7660;BME280;3872;47.902;8.162;2023-03-21T07:03:48;91934.34;;;4.93;100.00
7660;BME280;3872;47.902;8.162;2023-03-21T07:06:20;91935.63;;;4.81;100.00
7660;BME280;3872;47.902;8.162;2023-03-21T07:08:47;91929.94;;;5.04;100.00
7660;BME280;3872;47.902;8.162;2023-03-21T07:11:15;91923.44;;;5.27;100.00
7660;BME280;3872;47.902;8.162;2023-03-21T07:13:46;91922.94;;;5.45;100.00
7660;BME280;3872;47.902;8.162;2023-03-21T07:16:13;91920.06;;;5.51;100.00
7660;BME280;3872;47.902;8.162;2023-03-21T07:18:40;91921.09;;;5.40;100.00
7660;BME280;3872;47.902;8.162;2023-03-21T07:21:07;91920.84;;;5.82;100.00
7660;BME280;3872;47.902;8.162;2023-03-21T07:23:35;91914.28;;;6.10;100.00
7660;BME280;3872;47.902;8.162;2023-03-21T07:26:03;91913.47;;;6.25;100.00
7660;BME280;3872;47.902;8.162;2023-03-21T07:28:30;91911.22;;;6.62;100.00
7660;BME280;3872;47.902;8.162;2023-03-21T07:30:57;91904.44;;;6.56;100.00
7660;BME280;3872;47.902;8.162;2023-03-21T07:33:25;91908.56;;;6.73;100.00
7660;BME280;3872;47.902;8.162;2023-03-21T07:35:56;91910.94;;;6.64;100.00
7660;BME280;3872;47.902;8.162;2023-03-21T07:38:23;91906.53;;;6.59;100.00
7660;BME280;3872;47.902;8.162;2023-03-21T07:40:52;91907.81;;;6.62;100.00
7660;BME280;3872;47.902;8.162;2023-03-21T07:43:19;91907.16;;;6.90;100.00
7660;BME280;3872;47.902;8.162;2023-03-21T07:45:48;91911.88;;;7.32;100.00
7660;BME280;3872;47.902;8.162;2023-03-21T07:48:14;91889.59;;;7.69;100.00
7660;BME280;3872;47.902;8.162;2023-03-21T07:50:42;91900.50;;;7.81;100.00
7660;BME280;3872;47.902;8.162;2023-03-21T07:53:08;91903.41;;;8.08;100.00
7660;BME280;3872;47.902;8.162;2023-03-21T07:55:35;91906.25;;;7.49;100.00
7660;BME280;3872;47.902;8.162;2023-03-21T07:58:03;91903.91;;;7.81;100.00
7660;BME280;3872;47.902;8.162;2023-03-21T08:00:30;91896.97;;;8.19;100.00
7660;BME280;3872;47.902;8.162;2023-03-21T08:02:57;91896.75;;;8.87;100.00
7660;BME280;3872;47.902;8.162;2023-03-21T08:05:28;91893.41;;;8.82;100.00
7660;BME280;3872;47.902;8.162;2023-03-21T08:07:55;91885.28;;;9.21;100.00
7660;BME280;3872;47.902;8.162;2023-03-21T08:10:22;91889.03;;;9.33;100.00
7660;BME280;3872;47.902;8.162;2023-03-21T08:12:49;91887.84;;;9.07;100.00
7660;BME280;3872;47.902;8.162;2023-03-21T08:15:17;91885.56;;;9.70;100.00
7660;BME280;3872;47.902;8.162;2023-03-21T08:17:44;91891.50;;;9.43;100.00
7660;BME280;3872;47.902;8.162;2023-03-21T08:20:12;91890.91;;;9.98;100.00
7660;BME280;3872;47.902;8.162;2023-03-21T08:22:41;91887.53;;;9.78;100.00
7660;BME280;3872;47.902;8.162;2023-03-21T08:25:09;91889.41;;;9.92;100.00
7660;BME280;3872;47.902;8.162;2023-03-21T08:27:38;91885.16;;;10.09;100.00
7660;BME280;3872;47.902;8.162;2023-03-21T08:30:06;91879.66;;;9.78;100.00
7660;BME280;3872;47.902;8.162;2023-03-21T08:32:34;91880.16;;;10.27;100.00
7660;BME280;3872;47.902;8.162;2023-03-21T08:35:05;91878.03;;;10.56;100.00
7660;BME280;3872;47.902;8.162;2023-03-21T08:37:34;91875.75;;;10.90;100.00
7660;BME280;3872;47.902;8.162;2023-03-21T08:40:00;91876.38;;;10.46;100.00
7660;BME280;3872;47.902;8.162;2023-03-21T08:42:31;91881.69;;;10.96;100.00
7660;BME280;3872;47.902;8.162;2023-03-21T08:44:57;91878.56;;;11.08;100.00
7660;BME280;3872;47.902;8.162;2023-03-21T08:47:24;91878.16;;;11.50;100.00
7660;BME280;3872;47.902;8.162;2023-03-21T08:49:51;91882.16;;;11.70;100.00
7660;BME280;3872;47.902;8.162;2023-03-21T08:52:18;91880.38;;;11.57;100.00
7660;BME280;3872;47.902;8.162;2023-03-21T08:54:45;91886.03;;;11.86;100.00
7660;BME280;3872;47.902;8.162;2023-03-21T08:57:12;91889.00;;;11.49;100.00
7660;BME280;3872;47.902;8.162;2023-03-21T08:59:39;91881.84;;;12.16;100.00
7660;BME280;3872;47.902;8.162;2023-03-21T09:02:06;91889.97;;;12.59;100.00
7660;BME280;3872;47.902;8.162;2023-03-21T09:04:32;91881.66;;;12.35;100.00
7660;BME280;3872;47.902;8.162;2023-03-21T09:07:00;91883.81;;;13.20;100.00
7660;BME280;3872;47.902;8.162;2023-03-21T09:09:29;91881.13;;;13.12;100.00
7660;BME280;3872;47.902;8.162;2023-03-21T09:11:56;91878.63;;;13.07;100.00
7660;BME280;3872;47.902;8.162;2023-03-21T09:14:22;91881.16;;;13.20;100.00
7660;BME280;3872;47.902;8.162;2023-03-21T09:16:49;91870.13;;;13.53;97.25
7660;BME280;3872;47.902;8.162;2023-03-21T09:19:16;91876.75;;;12.59;100.00
7660;BME280;3872;47.902;8.162;2023-03-21T09:21:43;91882.59;;;12.78;100.00
7660;BME280;3872;47.902;8.162;2023-03-21T09:24:11;91879.78;;;13.66;100.00
7660;BME280;3872;47.902;8.162;2023-03-21T09:26:38;91884.13;;;13.88;97.48
7660;BME280;3872;47.902;8.162;2023-03-21T09:29:04;91881.00;;;13.86;100.00
7660;BME280;3872;47.902;8.162;2023-03-21T09:31:32;91874.44;;;14.00;99.00
7660;BME280;3872;47.902;8.162;2023-03-21T09:33:58;91875.44;;;14.51;94.19
7660;BME280;3872;47.902;8.162;2023-03-21T09:36:25;91873.81;;;14.67;88.22
7660;BME280;3872;47.902;8.162;2023-03-21T09:38:53;91879.66;;;15.19;84.06
7660;BME280;3872;47.902;8.162;2023-03-21T09:41:56;91875.75;;;15.17;83.01
7660;BME280;3872;47.902;8.162;2023-03-21T09:44:38;91873.03;;;15.76;75.61
7660;BME280;3872;47.902;8.162;2023-03-21T09:47:14;91869.59;;;15.96;72.44
7660;BME280;3872;47.902;8.162;2023-03-21T09:49:46;91868.81;;;16.61;68.68
7660;BME280;3872;47.902;8.162;2023-03-21T09:52:19;91874.31;;;16.23;71.92
7660;BME280;3872;47.902;8.162;2023-03-21T09:54:48;91868.94;;;17.26;65.83
7660;BME280;3872;47.902;8.162;2023-03-21T09:57:23;91863.50;;;17.10;62.12
7660;BME280;3872;47.902;8.162;2023-03-21T09:59:53;91862.06;;;17.25;57.08
7660;BME280;3872;47.902;8.162;2023-03-21T10:02:36;91871.56;;;16.77;56.64
7660;BME280;3872;47.902;8.162;2023-03-21T10:05:11;91867.03;;;16.77;56.51
7660;BME280;3872;47.902;8.162;2023-03-21T10:07:41;91863.31;;;16.58;53.96
7660;BME280;3872;47.902;8.162;2023-03-21T10:10:14;91861.78;;;16.12;56.55
7660;BME280;3872;47.902;8.162;2023-03-21T10:12:44;91870.84;;;16.11;55.05
7660;BME280;3872;47.902;8.162;2023-03-21T10:15:15;91865.94;;;16.00;57.46
7660;BME280;3872;47.902;8.162;2023-03-21T10:17:46;91868.19;;;16.56;56.10
7660;BME280;3872;47.902;8.162;2023-03-21T10:20:18;91861.16;;;16.84;52.89
7660;BME280;3872;47.902;8.162;2023-03-21T10:22:46;91869.44;;;15.92;51.27
7660;BME280;3872;47.902;8.162;2023-03-21T10:25:16;91874.19;;;15.87;53.27
7660;BME280;3872;47.902;8.162;2023-03-21T10:27:45;91871.22;;;15.47;50.72
7660;BME280;3872;47.902;8.162;2023-03-21T10:30:20;91869.41;;;15.09;52.50
7660;BME280;3872;47.902;8.162;2023-03-21T10:32:50;91862.84;;;16.31;51.16
7660;BME280;3872;47.902;8.162;2023-03-21T10:35:17;91863.28;;;17.15;50.43
7660;BME280;3872;47.902;8.162;2023-03-21T10:37:46;91856.75;;;17.25;47.14
7660;BME280;3872;47.902;8.162;2023-03-21T10:40:14;91854.72;;;17.46;47.36
7660;BME280;3872;47.902;8.162;2023-03-21T10:42:41;91853.81;;;17.94;43.93
7660;BME280;3872;47.902;8.162;2023-03-21T10:45:15;91853.41;;;17.80;44.22
7660;BME280;3872;47.902;8.162;2023-03-21T10:47:46;91853.34;;;17.64;45.46
7660;BME280;3872;47.902;8.162;2023-03-21T10:50:16;91845.41;;;18.35;41.54
7660;BME280;3872;47.902;8.162;2023-03-21T10:52:47;91856.06;;;18.35;43.50
7660;BME280;3872;47.902;8.162;2023-03-21T10:55:21;91847.75;;;18.53;44.24
7660;BME280;3872;47.902;8.162;2023-03-21T10:57:53;91846.59;;;17.67;47.64
7660;BME280;3872;47.902;8.162;2023-03-21T11:00:27;91848.81;;;18.64;43.92
7660;BME280;3872;47.902;8.162;2023-03-21T11:02:55;91848.06;;;18.79;43.34
7660;BME280;3872;47.902;8.162;2023-03-21T11:05:25;91838.94;;;17.93;44.32
7660;BME280;3872;47.902;8.162;2023-03-21T11:07:57;91840.75;;;18.92;40.83
7660;BME280;3872;47.902;8.162;2023-03-21T11:10:27;91843.13;;;19.12;41.58
7660;BME280;3872;47.902;8.162;2023-03-21T11:12:56;91833.16;;;19.25;42.74
7660;BME280;3872;47.902;8.162;2023-03-21T11:15:30;91836.19;;;20.16;41.64
7660;BME280;3872;47.902;8.162;2023-03-21T11:17:57;91837.09;;;19.66;43.20
7660;BME280;3872;47.902;8.162;2023-03-21T11:20:25;91822.31;;;20.72;41.41
7660;BME280;3872;47.902;8.162;2023-03-21T11:22:55;91823.25;;;20.83;39.59
7660;BME280;3872;47.902;8.162;2023-03-21T11:25:26;91826.91;;;20.94;39.99
7660;BME280;3872;47.902;8.162;2023-03-21T11:27:58;91815.50;;;20.75;37.09
7660;BME280;3872;47.902;8.162;2023-03-21T11:30:32;91818.19;;;19.55;38.72
7660;BME280;3872;47.902;8.162;2023-03-21T11:33:01;91817.84;;;20.34;35.27
7660;BME280;3872;47.902;8.162;2023-03-21T11:35:32;91812.97;;;20.40;34.52
7660;BME280;3872;47.902;8.162;2023-03-21T11:38:00;91811.19;;;20.47;34.21
7660;BME280;3872;47.902;8.162;2023-03-21T11:40:28;91820.25;;;19.11;36.12
7660;BME280;3872;47.902;8.162;2023-03-21T11:42:56;91801.34;;;20.51;32.98
7660;BME280;3872;47.902;8.162;2023-03-21T11:45:24;91803.19;;;20.28;33.89
7660;BME280;3872;47.902;8.162;2023-03-21T11:47:55;91799.56;;;20.59;32.12
7660;BME280;3872;47.902;8.162;2023-03-21T11:50:28;91803.34;;;20.35;30.42
7660;BME280;3872;47.902;8.162;2023-03-21T11:53:21;91797.84;;;20.70;29.35
7660;BME280;3872;47.902;8.162;2023-03-21T11:56:00;91801.34;;;17.94;28.58
7660;BME280;3872;47.902;8.162;2023-03-21T11:58:38;91790.03;;;19.58;28.36
7660;BME280;3872;47.902;8.162;2023-03-21T12:01:13;91798.94;;;20.04;25.94
7660;BME280;3872;47.902;8.162;2023-03-21T12:03:56;91788.09;;;20.58;28.07
7660;BME280;3872;47.902;8.162;2023-03-21T12:06:28;91783.00;;;20.99;25.08
7660;BME280;3872;47.902;8.162;2023-03-21T12:09:04;91776.59;;;19.93;25.85
7660;BME280;3872;47.902;8.162;2023-03-21T12:11:43;91787.56;;;18.20;34.85
7660;BME280;3872;47.902;8.162;2023-03-21T12:14:16;91781.53;;;18.08;39.77
7660;BME280;3872;47.902;8.162;2023-03-21T12:16:54;91779.41;;;18.45;37.83
7660;BME280;3872;47.902;8.162;2023-03-21T12:19:47;91774.69;;;18.22;39.80
7660;BME280;3872;47.902;8.162;2023-03-21T12:22:22;91778.19;;;19.05;36.69
7660;BME280;3872;47.902;8.162;2023-03-21T12:24:54;91780.47;;;18.87;38.60
7660;BME280;3872;47.902;8.162;2023-03-21T12:27:29;91773.06;;;18.49;35.71
7660;BME280;3872;47.902;8.162;2023-03-21T12:30:10;91775.69;;;17.46;40.97
7660;BME280;3872;47.902;8.162;2023-03-21T12:32:50;91774.19;;;18.32;39.95
7660;BME280;3872;47.902;8.162;2023-03-21T12:35:29;91768.50;;;18.50;39.72
7660;BME280;3872;47.902;8.162;2023-03-21T12:38:10;91769.00;;;17.52;40.92
7660;BME280;3872;47.902;8.162;2023-03-21T12:40:47;91771.34;;;17.42;40.51
7660;BME280;3872;47.902;8.162;2023-03-21T12:43:39;91774.69;;;18.85;39.18
7660;BME280;3872;47.902;8.162;2023-03-21T12:46:12;91760.84;;;19.30;38.30
7660;BME280;3872;47.902;8.162;2023-03-21T12:48:44;91767.69;;;17.46;43.99
7660;BME280;3872;47.902;8.162;2023-03-21T12:51:17;91758.84;;;17.70;42.18
7660;BME280;3872;47.902;8.162;2023-03-21T12:53:51;91760.81;;;18.01;41.15
7660;BME280;3872;47.902;8.162;2023-03-21T12:56:24;91760.91;;;17.49;41.56
7660;BME280;3872;47.902;8.162;2023-03-21T12:58:57;91760.75;;;17.70;41.54
7660;BME280;3872;47.902;8.162;2023-03-21T13:01:27;91765.88;;;17.22;43.32
7660;BME280;3872;47.902;8.162;2023-03-21T13:04:29;91758.19;;;18.17;41.40
7660;BME280;3872;47.902;8.162;2023-03-21T13:06:59;91763.34;;;18.88;40.70
7660;BME280;3872;47.902;8.162;2023-03-21T13:09:32;91753.84;;;17.81;43.91
7660;BME280;3872;47.902;8.162;2023-03-21T13:12:10;91751.66;;;17.71;44.80
7660;BME280;3872;47.902;8.162;2023-03-21T13:14:45;91755.81;;;18.59;42.18
7660;BME280;3872;47.902;8.162;2023-03-21T13:17:21;91749.53;;;17.36;46.04
7660;BME280;3872;47.902;8.162;2023-03-21T13:19:53;91755.47;;;16.08;49.08
7660;BME280;3872;47.902;8.162;2023-03-21T13:22:25;91750.78;;;17.67;44.85
7660;BME280;3872;47.902;8.162;2023-03-21T13:24:57;91753.75;;;17.93;44.79
7660;BME280;3872;47.902;8.162;2023-03-21T13:27:27;91751.72;;;18.33;43.68
7660;BME280;3872;47.902;8.162;2023-03-21T13:29:58;91748.66;;;18.47;43.45
7660;BME280;3872;47.902;8.162;2023-03-21T13:32:28;91746.69;;;18.44;43.94
7660;BME280;3872;47.902;8.162;2023-03-21T13:34:57;91744.00;;;18.28;45.57
7660;BME280;3872;47.902;8.162;2023-03-21T13:37:28;91754.75;;;17.05;46.88
7660;BME280;3872;47.902;8.162;2023-03-21T13:39:59;91738.00;;;17.72;46.19
7660;BME280;3872;47.902;8.162;2023-03-21T13:42:34;91744.97;;;18.52;43.20
7660;BME280;3872;47.902;8.162;2023-03-21T13:45:05;91737.66;;;18.33;42.94